sensor_id;sensor_type;location;lat;lon;timestamp;temperature;humidity
30150;DHT22;16962;48.646;9.026;2023-03-01T00:02:40;-2.70;99.90
30150;DHT22;16962;48.646;9.026;2023-03-01T00:05:28;-2.80;99.90
30150;DHT22;16962;48.646;9.026;2023-03-01T00:08:15;-2.70;99.90
30150;DHT22;16962;48.646;9.026;2023-03-01T00:14:02;-2.90;99.90
30150;DHT22;16962;48.646;9.026;2023-03-01T00:16:54;-2.90;99.90
30150;DHT22;16962;48.646;9.026;2023-03-01T00:19:41;-3.10;99.90
30150;DHT22;16962;48.646;9.026;2023-03-01T00:22:28;-3.20;99.90
30150;DHT22;16962;48.646;9.026;2023-03-01T00:25:18;-3.20;99.90
30150;DHT22;16962;48.646;9.026;2023-03-01T00:28:06;-3.40;99.90
30150;DHT22;16962;48.646;9.026;2023-03-01T00:30:53;-3.40;99.90
30150;DHT22;16962;48.646;9.026;2023-03-01T00:33:41;-3.60;99.90
30150;DHT22;16962;48.646;9.026;2023-03-01T00:36:30;-3.60;99.90
30150;DHT22;16962;48.646;9.026;2023-03-01T00:39:18;-3.70;99.90
30150;DHT22;16962;48.646;9.026;2023-03-01T00:42:05;-3.70;99.90
30150;DHT22;16962;48.646;9.026;2023-03-01T00:44:53;-3.70;99.90
30150;DHT22;16962;48.646;9.026;2023-03-01T00:47:40;-3.70;99.90
30150;DHT22;16962;48.646;9.026;2023-03-01T00:50:27;-3.70;99.90
30150;DHT22;16962;48.646;9.026;2023-03-01T00:53:14;-3.80;1.00
30150;DHT22;16962;48.646;9.026;2023-03-01T00:56:05;-3.90;1.00
30150;DHT22;16962;48.646;9.026;2023-03-01T00:58:52;-3.90;1.00
30150;DHT22;16962;48.646;9.026;2023-03-01T01:01:39;-3.90;1.00
30150;DHT22;16962;48.646;9.026;2023-03-01T01:04:27;-3.90;1.00
30150;DHT22;16962;48.646;9.026;2023-03-01T01:07:14;-4.00;1.00
30150;DHT22;16962;48.646;9.026;2023-03-01T01:10:02;-4.00;43.00
30150;DHT22;16962;48.646;9.026;2023-03-01T01:12:49;-4.00;83.20
30150;DHT22;16962;48.646;9.026;2023-03-01T01:15:36;-4.00;99.90
30150;DHT22;16962;48.646;9.026;2023-03-01T01:18:24;-4.10;99.90
30150;DHT22;16962;48.646;9.026;2023-03-01T01:21:16;-4.20;99.90
30150;DHT22;16962;48.646;9.026;2023-03-01T01:24:04;-4.20;99.90
30150;DHT22;16962;48.646;9.026;2023-03-01T01:26:54;-4.10;99.90
30150;DHT22;16962;48.646;9.026;2023-03-01T01:29:41;-4.10;99.90
30150;DHT22;16962;48.646;9.026;2023-03-01T01:32:29;-4.10;1.00
30150;DHT22;16962;48.646;9.026;2023-03-01T01:35:16;-4.10;1.00
30150;DHT22;16962;48.646;9.026;2023-03-01T01:38:03;-3.90;13.70
30150;DHT22;16962;48.646;9.026;2023-03-01T01:40:51;-3.80;61.10
30150;DHT22;16962;48.646;9.026;2023-03-01T01:44:08;-3.80;1.00
30150;DHT22;16962;48.646;9.026;2023-03-01T01:47:06;-3.80;1.00
30150;DHT22;16962;48.646;9.026;2023-03-01T01:49:55;-3.80;60.30
30150;DHT22;16962;48.646;9.026;2023-03-01T01:52:43;-3.70;99.90
30150;DHT22;16962;48.646;9.026;2023-03-01T01:55:32;-3.60;71.30
30150;DHT22;16962;48.646;9.026;2023-03-01T01:58:24;-3.60;6.10
30150;DHT22;16962;48.646;9.026;2023-03-01T02:01:15;-3.70;1.00
30150;DHT22;16962;48.646;9.026;2023-03-01T02:04:03;-3.60;15.30
30150;DHT22;16962;48.646;9.026;2023-03-01T02:07:01;-3.50;14.20
30150;DHT22;16962;48.646;9.026;2023-03-01T02:09:51;-3.50;1.00
30150;DHT22;16962;48.646;9.026;2023-03-01T02:12:40;-3.50;1.00
30150;DHT22;16962;48.646;9.026;2023-03-01T02:15:32;-3.50;1.00
30150;DHT22;16962;48.646;9.026;2023-03-01T02:18:21;-3.40;37.40
30150;DHT22;16962;48.646;9.026;2023-03-01T02:22:09;-3.30;55.30
30150;DHT22;16962;48.646;9.026;2023-03-01T02:30:48;-2.80;1.00
30150;DHT22;16962;48.646;9.026;2023-03-01T02:33:56;-2.70;99.90
30150;DHT22;16962;48.646;9.026;2023-03-01T02:36:55;-2.50;99.90
30150;DHT22;16962;48.646;9.026;2023-03-01T02:39:47;-2.50;99.90
30150;DHT22;16962;48.646;9.026;2023-03-01T02:42:40;-2.40;99.90
30150;DHT22;16962;48.646;9.026;2023-03-01T02:45:31;-2.30;85.00
30150;DHT22;16962;48.646;9.026;2023-03-01T02:48:20;-2.30;12.30
30150;DHT22;16962;48.646;9.026;2023-03-01T02:54:38;-2.20;1.00
30150;DHT22;16962;48.646;9.026;2023-03-01T02:57:31;-2.10;1.00
30150;DHT22;16962;48.646;9.026;2023-03-01T03:00:26;-2.10;1.00
30150;DHT22;16962;48.646;9.026;2023-03-01T03:03:16;-2.20;99.90
30150;DHT22;16962;48.646;9.026;2023-03-01T03:06:04;-2.20;99.90
30150;DHT22;16962;48.646;9.026;2023-03-01T03:08:51;-2.10;99.90
30150;DHT22;16962;48.646;9.026;2023-03-01T03:11:48;-2.00;99.90
30150;DHT22;16962;48.646;9.026;2023-03-01T03:14:36;-2.10;99.90
30150;DHT22;16962;48.646;9.026;2023-03-01T03:17:23;-2.00;99.90
30150;DHT22;16962;48.646;9.026;2023-03-01T03:20:13;-2.00;99.90
30150;DHT22;16962;48.646;9.026;2023-03-01T03:23:06;-1.90;99.90
30150;DHT22;16962;48.646;9.026;2023-03-01T03:25:53;-1.90;99.90
30150;DHT22;16962;48.646;9.026;2023-03-01T03:28:40;-1.90;99.90
30150;DHT22;16962;48.646;9.026;2023-03-01T03:31:30;-1.90;99.90
30150;DHT22;16962;48.646;9.026;2023-03-01T03:34:17;-1.90;99.90
30150;DHT22;16962;48.646;9.026;2023-03-01T03:37:05;-1.90;99.90
30150;DHT22;16962;48.646;9.026;2023-03-01T03:40:12;-1.90;99.90
30150;DHT22;16962;48.646;9.026;2023-03-01T03:43:04;-1.90;99.90
30150;DHT22;16962;48.646;9.026;2023-03-01T03:45:52;-1.80;99.90
30150;DHT22;16962;48.646;9.026;2023-03-01T03:48:45;-1.90;99.90
30150;DHT22;16962;48.646;9.026;2023-03-01T03:51:32;-1.80;99.90
30150;DHT22;16962;48.646;9.026;2023-03-01T03:54:19;-1.80;99.90
30150;DHT22;16962;48.646;9.026;2023-03-01T03:57:07;-1.80;99.90
30150;DHT22;16962;48.646;9.026;2023-03-01T03:59:54;-1.80;99.90
30150;DHT22;16962;48.646;9.026;2023-03-01T04:02:42;-1.80;99.90
30150;DHT22;16962;48.646;9.026;2023-03-01T04:05:30;-1.80;99.90
30150;DHT22;16962;48.646;9.026;2023-03-01T04:08:19;-1.80;99.90
30150;DHT22;16962;48.646;9.026;2023-03-01T04:11:11;-1.80;99.90
30150;DHT22;16962;48.646;9.026;2023-03-01T04:14:14;-1.80;99.90
30150;DHT22;16962;48.646;9.026;2023-03-01T04:17:01;-1.70;99.90
30150;DHT22;16962;48.646;9.026;2023-03-01T04:19:52;-1.70;99.90
30150;DHT22;16962;48.646;9.026;2023-03-01T04:22:40;-1.70;99.90
30150;DHT22;16962;48.646;9.026;2023-03-01T04:25:29;-1.70;99.90
30150;DHT22;16962;48.646;9.026;2023-03-01T04:28:23;-1.70;99.90
30150;DHT22;16962;48.646;9.026;2023-03-01T04:31:16;-1.70;99.90
30150;DHT22;16962;48.646;9.026;2023-03-01T04:34:06;-1.70;99.90
30150;DHT22;16962;48.646;9.026;2023-03-01T04:36:53;-1.70;99.90
30150;DHT22;16962;48.646;9.026;2023-03-01T04:39:41;-1.60;99.90
30150;DHT22;16962;48.646;9.026;2023-03-01T04:42:35;-1.60;99.90
30150;DHT22;16962;48.646;9.026;2023-03-01T04:45:23;-1.60;99.90
30150;DHT22;16962;48.646;9.026;2023-03-01T04:48:13;-1.60;99.90
30150;DHT22;16962;48.646;9.026;2023-03-01T04:51:00;-1.60;99.90
30150;DHT22;16962;48.646;9.026;2023-03-01T04:53:47;-1.60;99.90
30150;DHT22;16962;48.646;9.026;2023-03-01T04:56:35;-1.60;99.90
30150;DHT22;16962;48.646;9.026;2023-03-01T04:59:22;-1.60;99.90
30150;DHT22;16962;48.646;9.026;2023-03-01T05:05:42;-1.60;99.90
30150;DHT22;16962;48.646;9.026;2023-03-01T05:08:31;-1.60;99.90
30150;DHT22;16962;48.646;9.026;2023-03-01T05:11:21;-1.60;99.90
30150;DHT22;16962;48.646;9.026;2023-03-01T05:14:11;-1.60;99.90
30150;DHT22;16962;48.646;9.026;2023-03-01T05:16:59;-1.60;99.90
30150;DHT22;16962;48.646;9.026;2023-03-01T05:19:50;-1.50;99.90
30150;DHT22;16962;48.646;9.026;2023-03-01T05:22:38;-1.50;99.90
30150;DHT22;16962;48.646;9.026;2023-03-01T05:25:28;-1.50;99.90
30150;DHT22;16962;48.646;9.026;2023-03-01T05:28:20;-1.50;99.90
30150;DHT22;16962;48.646;9.026;2023-03-01T05:31:15;-1.50;99.90
30150;DHT22;16962;48.646;9.026;2023-03-01T05:34:05;-1.50;99.90
30150;DHT22;16962;48.646;9.026;2023-03-01T05:36:54;-1.50;99.90
30150;DHT22;16962;48.646;9.026;2023-03-01T05:39:43;-1.50;99.90
30150;DHT22;16962;48.646;9.026;2023-03-01T05:42:35;-1.50;99.90
30150;DHT22;16962;48.646;9.026;2023-03-01T05:45:25;-1.40;99.90
30150;DHT22;16962;48.646;9.026;2023-03-01T05:48:13;-1.40;99.90
30150;DHT22;16962;48.646;9.026;2023-03-01T05:51:00;-1.40;99.90
30150;DHT22;16962;48.646;9.026;2023-03-01T05:53:50;-1.40;99.90
30150;DHT22;16962;48.646;9.026;2023-03-01T05:56:37;-1.30;99.90
30150;DHT22;16962;48.646;9.026;2023-03-01T05:59:24;-1.40;99.90
30150;DHT22;16962;48.646;9.026;2023-03-01T06:02:12;-1.40;99.90
30150;DHT22;16962;48.646;9.026;2023-03-01T06:05:00;-1.30;99.90
30150;DHT22;16962;48.646;9.026;2023-03-01T06:07:50;-1.30;99.90
30150;DHT22;16962;48.646;9.026;2023-03-01T06:10:37;-1.30;99.90
30150;DHT22;16962;48.646;9.026;2023-03-01T06:13:24;-1.30;99.90
30150;DHT22;16962;48.646;9.026;2023-03-01T06:16:12;-1.30;99.90
30150;DHT22;16962;48.646;9.026;2023-03-01T06:19:00;-1.20;99.90
30150;DHT22;16962;48.646;9.026;2023-03-01T06:21:50;-1.20;99.90
30150;DHT22;16962;48.646;9.026;2023-03-01T06:24:37;-1.20;99.90
30150;DHT22;16962;48.646;9.026;2023-03-01T06:27:33;-1.20;98.10
30150;DHT22;16962;48.646;9.026;2023-03-01T06:30:24;-1.20;94.80
30150;DHT22;16962;48.646;9.026;2023-03-01T06:33:14;-1.20;93.90
30150;DHT22;16962;48.646;9.026;2023-03-01T06:36:09;-1.10;91.20
30150;DHT22;16962;48.646;9.026;2023-03-01T06:38:57;-1.10;84.00
30150;DHT22;16962;48.646;9.026;2023-03-01T06:41:46;-1.00;75.90
30150;DHT22;16962;48.646;9.026;2023-03-01T06:44:33;-1.00;60.70
30150;DHT22;16962;48.646;9.026;2023-03-01T06:47:21;-0.90;46.30
30150;DHT22;16962;48.646;9.026;2023-03-01T06:50:08;-0.80;32.80
30150;DHT22;16962;48.646;9.026;2023-03-01T06:52:57;-0.80;20.00
30150;DHT22;16962;48.646;9.026;2023-03-01T06:55:46;-0.70;11.50
30150;DHT22;16962;48.646;9.026;2023-03-01T06:58:34;-0.50;1.60
30150;DHT22;16962;48.646;9.026;2023-03-01T07:01:21;-0.40;1.00
30150;DHT22;16962;48.646;9.026;2023-03-01T07:04:08;-0.20;1.00
30150;DHT22;16962;48.646;9.026;2023-03-01T07:06:55;-0.10;1.00
30150;DHT22;16962;48.646;9.026;2023-03-01T07:09:43;0.00;1.00
30150;DHT22;16962;48.646;9.026;2023-03-01T07:12:30;0.00;1.00
30150;DHT22;16962;48.646;9.026;2023-03-01T07:15:18;0.10;1.00
30150;DHT22;16962;48.646;9.026;2023-03-01T07:18:07;0.10;1.00
30150;DHT22;16962;48.646;9.026;2023-03-01T07:20:56;0.20;1.00
30150;DHT22;16962;48.646;9.026;2023-03-01T07:23:43;0.20;1.00
30150;DHT22;16962;48.646;9.026;2023-03-01T07:26:30;0.30;1.00
30150;DHT22;16962;48.646;9.026;2023-03-01T07:29:18;0.30;1.00
30150;DHT22;16962;48.646;9.026;2023-03-01T07:32:17;0.30;1.00
30150;DHT22;16962;48.646;9.026;2023-03-01T07:35:05;0.50;1.00
30150;DHT22;16962;48.646;9.026;2023-03-01T07:37:53;0.70;1.00
30150;DHT22;16962;48.646;9.026;2023-03-01T07:40:40;0.90;99.90
30150;DHT22;16962;48.646;9.026;2023-03-01T07:43:29;1.00;99.90
30150;DHT22;16962;48.646;9.026;2023-03-01T07:46:17;1.30;99.90
30150;DHT22;16962;48.646;9.026;2023-03-01T07:49:06;1.60;99.90
30150;DHT22;16962;48.646;9.026;2023-03-01T07:51:53;1.70;99.90
30150;DHT22;16962;48.646;9.026;2023-03-01T07:54:42;1.80;99.90
30150;DHT22;16962;48.646;9.026;2023-03-01T07:57:31;1.90;99.90
30150;DHT22;16962;48.646;9.026;2023-03-01T08:00:21;2.00;99.90
30150;DHT22;16962;48.646;9.026;2023-03-01T08:03:08;1.90;99.90
30150;DHT22;16962;48.646;9.026;2023-03-01T08:05:55;2.00;99.90
30150;DHT22;16962;48.646;9.026;2023-03-01T08:08:43;2.00;99.90
30150;DHT22;16962;48.646;9.026;2023-03-01T08:11:32;2.10;99.90
30150;DHT22;16962;48.646;9.026;2023-03-01T08:14:19;2.10;99.90
30150;DHT22;16962;48.646;9.026;2023-03-01T08:17:09;2.10;99.90
30150;DHT22;16962;48.646;9.026;2023-03-01T08:19:56;2.30;99.90
30150;DHT22;16962;48.646;9.026;2023-03-01T08:22:43;2.80;99.90
30150;DHT22;16962;48.646;9.026;2023-03-01T08:25:32;3.40;99.90
30150;DHT22;16962;48.646;9.026;2023-03-01T08:28:25;3.40;99.90
30150;DHT22;16962;48.646;9.026;2023-03-01T08:31:26;3.50;99.90
30150;DHT22;16962;48.646;9.026;2023-03-01T08:34:17;3.40;99.90
30150;DHT22;16962;48.646;9.026;2023-03-01T08:37:04;3.40;99.90
30150;DHT22;16962;48.646;9.026;2023-03-01T08:39:52;3.50;99.90
30150;DHT22;16962;48.646;9.026;2023-03-01T08:42:40;3.90;99.90
30150;DHT22;16962;48.646;9.026;2023-03-01T08:45:30;4.40;99.90
30150;DHT22;16962;48.646;9.026;2023-03-01T08:48:17;4.80;99.90
30150;DHT22;16962;48.646;9.026;2023-03-01T08:53:56;4.60;99.90
30150;DHT22;16962;48.646;9.026;2023-03-01T08:56:44;4.60;99.90
30150;DHT22;16962;48.646;9.026;2023-03-01T08:59:31;4.50;99.90
30150;DHT22;16962;48.646;9.026;2023-03-01T09:02:24;4.20;99.90
30150;DHT22;16962;48.646;9.026;2023-03-01T09:05:13;4.40;99.90
30150;DHT22;16962;48.646;9.026;2023-03-01T09:08:00;4.40;99.90
30150;DHT22;16962;48.646;9.026;2023-03-01T09:10:48;4.60;99.90
30150;DHT22;16962;48.646;9.026;2023-03-01T09:13:35;4.30;99.90
30150;DHT22;16962;48.646;9.026;2023-03-01T09:16:23;4.20;99.90
30150;DHT22;16962;48.646;9.026;2023-03-01T09:19:10;4.20;99.90
30150;DHT22;16962;48.646;9.026;2023-03-01T09:21:58;3.90;99.90
30150;DHT22;16962;48.646;9.026;2023-03-01T09:24:45;3.90;99.90
30150;DHT22;16962;48.646;9.026;2023-03-01T09:27:33;4.00;99.90
30150;DHT22;16962;48.646;9.026;2023-03-01T09:30:20;4.30;99.90
30150;DHT22;16962;48.646;9.026;2023-03-01T09:33:08;4.50;99.90
30150;DHT22;16962;48.646;9.026;2023-03-01T09:36:06;5.00;99.90
30150;DHT22;16962;48.646;9.026;2023-03-01T09:38:57;5.40;99.90
30150;DHT22;16962;48.646;9.026;2023-03-01T09:42:02;5.40;99.90
30150;DHT22;16962;48.646;9.026;2023-03-01T09:45:05;5.60;99.30
30150;DHT22;16962;48.646;9.026;2023-03-01T09:47:53;6.20;95.10
30150;DHT22;16962;48.646;9.026;2023-03-01T09:50:45;5.60;90.00
30150;DHT22;16962;48.646;9.026;2023-03-01T09:53:35;5.60;87.00
30150;DHT22;16962;48.646;9.026;2023-03-01T09:57:13;5.40;83.80
30150;DHT22;16962;48.646;9.026;2023-03-01T09:59:44;5.70;85.40
30150;DHT22;16962;48.646;9.026;2023-03-01T10:02:38;6.30;79.00
30150;DHT22;16962;48.646;9.026;2023-03-01T10:11:45;7.50;57.10
30150;DHT22;16962;48.646;9.026;2023-03-01T10:17:44;7.60;48.00
30150;DHT22;16962;48.646;9.026;2023-03-01T10:20:50;7.70;43.00
30150;DHT22;16962;48.646;9.026;2023-03-01T10:23:39;7.70;43.40
30150;DHT22;16962;48.646;9.026;2023-03-01T10:29:30;8.60;37.70
30150;DHT22;16962;48.646;9.026;2023-03-01T10:32:18;8.30;29.40
30150;DHT22;16962;48.646;9.026;2023-03-01T10:35:35;8.50;28.70
30150;DHT22;16962;48.646;9.026;2023-03-01T10:38:23;7.90;23.90
30150;DHT22;16962;48.646;9.026;2023-03-01T10:41:11;8.10;27.30
30150;DHT22;16962;48.646;9.026;2023-03-01T10:43:59;8.50;24.20
30150;DHT22;16962;48.646;9.026;2023-03-01T10:46:59;9.10;25.20
30150;DHT22;16962;48.646;9.026;2023-03-01T10:49:53;9.40;28.20
30150;DHT22;16962;48.646;9.026;2023-03-01T10:52:41;9.10;21.00
30150;DHT22;16962;48.646;9.026;2023-03-01T10:58:20;10.30;16.30
30150;DHT22;16962;48.646;9.026;2023-03-01T11:07:01;10.00;10.20
30150;DHT22;16962;48.646;9.026;2023-03-01T11:09:49;10.30;9.80
30150;DHT22;16962;48.646;9.026;2023-03-01T11:12:38;10.10;5.10
30150;DHT22;16962;48.646;9.026;2023-03-01T11:15:28;10.30;6.00
30150;DHT22;16962;48.646;9.026;2023-03-01T11:18:23;11.30;5.20
30150;DHT22;16962;48.646;9.026;2023-03-01T11:21:33;11.50;3.80
30150;DHT22;16962;48.646;9.026;2023-03-01T11:24:30;10.90;1.00
30150;DHT22;16962;48.646;9.026;2023-03-01T11:27:25;10.50;1.00
30150;DHT22;16962;48.646;9.026;2023-03-01T11:38:55;10.60;1.00
30150;DHT22;16962;48.646;9.026;2023-03-01T11:41:52;11.30;1.00
30150;DHT22;16962;48.646;9.026;2023-03-01T11:44:41;11.30;1.00
30150;DHT22;16962;48.646;9.026;2023-03-01T11:47:50;11.40;1.00
30150;DHT22;16962;48.646;9.026;2023-03-01T11:50:50;11.60;1.00
30150;DHT22;16962;48.646;9.026;2023-03-01T11:59:53;11.60;1.00
30150;DHT22;16962;48.646;9.026;2023-03-01T12:18:58;13.20;1.00
30150;DHT22;16962;48.646;9.026;2023-03-01T12:34:03;13.50;1.00
30150;DHT22;16962;48.646;9.026;2023-03-01T12:37:14;13.80;1.00
30150;DHT22;16962;48.646;9.026;2023-03-01T12:47:16;12.80;1.00
30150;DHT22;16962;48.646;9.026;2023-03-01T12:50:19;12.80;1.00
30150;DHT22;16962;48.646;9.026;2023-03-01T12:54:05;13.30;1.00
30150;DHT22;16962;48.646;9.026;2023-03-01T12:56:35;12.20;1.00
30150;DHT22;16962;48.646;9.026;2023-03-01T13:02:48;13.00;1.00
30150;DHT22;16962;48.646;9.026;2023-03-01T13:12:42;14.70;1.00
30150;DHT22;16962;48.646;9.026;2023-03-01T13:19:57;13.70;1.00
30150;DHT22;16962;48.646;9.026;2023-03-01T13:23:07;15.30;1.00
30150;DHT22;16962;48.646;9.026;2023-03-01T13:26:15;15.30;1.00
30150;DHT22;16962;48.646;9.026;2023-03-01T13:29:03;16.10;1.00
30150;DHT22;16962;48.646;9.026;2023-03-01T13:31:58;16.00;1.00
30150;DHT22;16962;48.646;9.026;2023-03-01T13:34:59;14.60;1.00
30150;DHT22;16962;48.646;9.026;2023-03-01T13:37:50;14.40;1.00
30150;DHT22;16962;48.646;9.026;2023-03-01T13:43:42;14.60;1.00
30150;DHT22;16962;48.646;9.026;2023-03-01T13:51:43;13.20;1.00
30150;DHT22;16962;48.646;9.026;2023-03-01T13:58:05;12.60;1.00
30150;DHT22;16962;48.646;9.026;2023-03-01T14:03:50;12.40;1.00
30150;DHT22;16962;48.646;9.026;2023-03-01T14:06:37;12.00;1.00
30150;DHT22;16962;48.646;9.026;2023-03-01T14:09:31;12.10;1.00
30150;DHT22;16962;48.646;9.026;2023-03-01T14:15:22;13.30;1.00
30150;DHT22;16962;48.646;9.026;2023-03-01T14:18:38;13.70;1.00
30150;DHT22;16962;48.646;9.026;2023-03-01T14:21:26;12.60;1.00
30150;DHT22;16962;48.646;9.026;2023-03-01T14:24:21;12.60;1.00
30150;DHT22;16962;48.646;9.026;2023-03-01T14:27:12;12.80;1.00
30150;DHT22;16962;48.646;9.026;2023-03-01T14:30:15;12.50;1.00
30150;DHT22;16962;48.646;9.026;2023-03-01T14:37:57;13.20;1.00
30150;DHT22;16962;48.646;9.026;2023-03-01T14:40:54;13.40;1.00
30150;DHT22;16962;48.646;9.026;2023-03-01T14:47:06;12.60;1.00
30150;DHT22;16962;48.646;9.026;2023-03-01T14:50:08;11.80;1.00
30150;DHT22;16962;48.646;9.026;2023-03-01T14:53:02;11.50;1.00
30150;DHT22;16962;48.646;9.026;2023-03-01T14:55:59;11.80;1.00
30150;DHT22;16962;48.646;9.026;2023-03-01T15:26:59;11.00;1.00
30150;DHT22;16962;48.646;9.026;2023-03-01T15:30:41;11.10;1.00
30150;DHT22;16962;48.646;9.026;2023-03-01T15:33:43;10.40;1.00
30150;DHT22;16962;48.646;9.026;2023-03-01T15:39:36;10.30;1.00
30150;DHT22;16962;48.646;9.026;2023-03-01T15:45:25;9.90;1.00
30150;DHT22;16962;48.646;9.026;2023-03-01T15:48:22;9.70;1.00
30150;DHT22;16962;48.646;9.026;2023-03-01T15:51:28;9.90;1.00
30150;DHT22;16962;48.646;9.026;2023-03-01T15:54:24;10.10;1.00
30150;DHT22;16962;48.646;9.026;2023-03-01T15:57:15;9.80;1.00
30150;DHT22;16962;48.646;9.026;2023-03-01T16:00:02;9.50;1.00
30150;DHT22;16962;48.646;9.026;2023-03-01T16:02:58;9.40;1.00
30150;DHT22;16962;48.646;9.026;2023-03-01T16:06:09;9.20;1.00
30150;DHT22;16962;48.646;9.026;2023-03-01T16:08:59;9.00;1.00
30150;DHT22;16962;48.646;9.026;2023-03-01T16:11:47;8.60;1.00
30150;DHT22;16962;48.646;9.026;2023-03-01T16:14:34;8.20;1.00
30150;DHT22;16962;48.646;9.026;2023-03-01T16:17:22;7.90;1.00
30150;DHT22;16962;48.646;9.026;2023-03-01T16:20:10;7.80;1.00
30150;DHT22;16962;48.646;9.026;2023-03-01T16:23:10;7.70;1.00
30150;DHT22;16962;48.646;9.026;2023-03-01T16:26:01;7.60;1.00
30150;DHT22;16962;48.646;9.026;2023-03-01T16:28:48;7.20;1.00
30150;DHT22;16962;48.646;9.026;2023-03-01T16:31:41;6.70;1.00
30150;DHT22;16962;48.646;9.026;2023-03-01T16:34:30;6.20;1.00
30150;DHT22;16962;48.646;9.026;2023-03-01T16:37:23;5.80;1.00
30150;DHT22;16962;48.646;9.026;2023-03-01T16:40:22;5.40;1.00
30150;DHT22;16962;48.646;9.026;2023-03-01T16:43:09;5.20;1.00
30150;DHT22;16962;48.646;9.026;2023-03-01T16:45:58;4.90;1.00
30150;DHT22;16962;48.646;9.026;2023-03-01T16:48:46;4.70;1.00
30150;DHT22;16962;48.646;9.026;2023-03-01T16:51:34;4.60;1.00
30150;DHT22;16962;48.646;9.026;2023-03-01T16:54:24;4.50;1.00
30150;DHT22;16962;48.646;9.026;2023-03-01T16:57:11;4.30;1.00
30150;DHT22;16962;48.646;9.026;2023-03-01T16:59:59;4.30;1.00
30150;DHT22;16962;48.646;9.026;2023-03-01T17:02:47;4.20;1.00
30150;DHT22;16962;48.646;9.026;2023-03-01T17:05:35;4.10;1.00
30150;DHT22;16962;48.646;9.026;2023-03-01T17:08:22;4.00;1.00
30150;DHT22;16962;48.646;9.026;2023-03-01T17:11:18;4.00;1.00
30150;DHT22;16962;48.646;9.026;2023-03-01T17:14:06;3.90;1.00
30150;DHT22;16962;48.646;9.026;2023-03-01T17:16:54;3.80;1.00
30150;DHT22;16962;48.646;9.026;2023-03-01T17:19:41;3.80;1.00
30150;DHT22;16962;48.646;9.026;2023-03-01T17:22:30;3.60;1.00
30150;DHT22;16962;48.646;9.026;2023-03-01T17:25:18;3.50;1.00
30150;DHT22;16962;48.646;9.026;2023-03-01T17:28:05;3.40;1.40
30150;DHT22;16962;48.646;9.026;2023-03-01T17:30:53;3.40;4.40
30150;DHT22;16962;48.646;9.026;2023-03-01T17:33:40;3.40;6.50
30150;DHT22;16962;48.646;9.026;2023-03-01T17:36:28;3.30;9.40
30150;DHT22;16962;48.646;9.026;2023-03-01T17:39:16;3.30;10.70
30150;DHT22;16962;48.646;9.026;2023-03-01T17:42:05;3.20;13.00
30150;DHT22;16962;48.646;9.026;2023-03-01T17:44:53;3.10;16.20
30150;DHT22;16962;48.646;9.026;2023-03-01T17:47:40;3.00;18.70
30150;DHT22;16962;48.646;9.026;2023-03-01T17:50:31;2.90;20.90
30150;DHT22;16962;48.646;9.026;2023-03-01T17:53:18;2.80;24.70
30150;DHT22;16962;48.646;9.026;2023-03-01T17:56:06;2.80;30.50
30150;DHT22;16962;48.646;9.026;2023-03-01T17:58:54;2.60;35.30
30150;DHT22;16962;48.646;9.026;2023-03-01T18:01:42;2.60;40.10
30150;DHT22;16962;48.646;9.026;2023-03-01T18:04:30;2.50;47.50
30150;DHT22;16962;48.646;9.026;2023-03-01T18:07:52;2.40;50.40
30150;DHT22;16962;48.646;9.026;2023-03-01T18:10:40;2.40;63.70
30150;DHT22;16962;48.646;9.026;2023-03-01T18:13:30;2.50;69.70
30150;DHT22;16962;48.646;9.026;2023-03-01T18:16:23;2.50;78.90
30150;DHT22;16962;48.646;9.026;2023-03-01T18:19:12;2.50;87.40
30150;DHT22;16962;48.646;9.026;2023-03-01T18:21:59;2.60;89.70
30150;DHT22;16962;48.646;9.026;2023-03-01T18:24:46;2.60;92.50
30150;DHT22;16962;48.646;9.026;2023-03-01T18:27:34;2.60;91.20
30150;DHT22;16962;48.646;9.026;2023-03-01T18:30:23;2.50;92.30
30150;DHT22;16962;48.646;9.026;2023-03-01T18:33:11;2.50;91.40
30150;DHT22;16962;48.646;9.026;2023-03-01T18:36:00;2.40;94.50
30150;DHT22;16962;48.646;9.026;2023-03-01T18:38:48;2.30;97.80
30150;DHT22;16962;48.646;9.026;2023-03-01T18:41:36;2.20;99.90
30150;DHT22;16962;48.646;9.026;2023-03-01T18:44:26;2.10;99.90
30150;DHT22;16962;48.646;9.026;2023-03-01T18:47:14;2.10;99.90
30150;DHT22;16962;48.646;9.026;2023-03-01T18:50:03;2.00;99.90
30150;DHT22;16962;48.646;9.026;2023-03-01T18:52:51;1.90;99.90
30150;DHT22;16962;48.646;9.026;2023-03-01T18:55:39;1.90;99.90
30150;DHT22;16962;48.646;9.026;2023-03-01T18:58:27;2.00;99.90
30150;DHT22;16962;48.646;9.026;2023-03-01T19:01:21;2.00;99.90
30150;DHT22;16962;48.646;9.026;2023-03-01T19:04:10;1.90;99.90
30150;DHT22;16962;48.646;9.026;2023-03-01T19:06:57;1.90;99.90
30150;DHT22;16962;48.646;9.026;2023-03-01T19:09:51;1.90;99.90
30150;DHT22;16962;48.646;9.026;2023-03-01T19:12:39;1.90;99.90
30150;DHT22;16962;48.646;9.026;2023-03-01T19:15:28;1.80;99.90
30150;DHT22;16962;48.646;9.026;2023-03-01T19:18:16;1.70;99.90
30150;DHT22;16962;48.646;9.026;2023-03-01T19:21:05;1.60;99.90
30150;DHT22;16962;48.646;9.026;2023-03-01T19:23:54;1.60;99.90
30150;DHT22;16962;48.646;9.026;2023-03-01T19:26:43;1.60;99.90
30150;DHT22;16962;48.646;9.026;2023-03-01T19:29:31;1.60;99.90
30150;DHT22;16962;48.646;9.026;2023-03-01T19:32:18;1.60;99.90
30150;DHT22;16962;48.646;9.026;2023-03-01T19:35:06;1.50;99.90
30150;DHT22;16962;48.646;9.026;2023-03-01T19:37:54;1.50;99.90
30150;DHT22;16962;48.646;9.026;2023-03-01T19:40:44;1.50;99.90
30150;DHT22;16962;48.646;9.026;2023-03-01T19:43:35;1.50;99.90
30150;DHT22;16962;48.646;9.026;2023-03-01T19:46:28;1.50;99.90
30150;DHT22;16962;48.646;9.026;2023-03-01T19:49:24;1.50;99.90
30150;DHT22;16962;48.646;9.026;2023-03-01T19:52:14;1.60;99.90
30150;DHT22;16962;48.646;9.026;2023-03-01T19:55:10;1.60;99.90
30150;DHT22;16962;48.646;9.026;2023-03-01T19:58:01;1.60;99.90
30150;DHT22;16962;48.646;9.026;2023-03-01T20:00:57;1.70;99.90
30150;DHT22;16962;48.646;9.026;2023-03-01T20:04:12;1.70;99.90
30150;DHT22;16962;48.646;9.026;2023-03-01T20:07:01;1.70;99.90
30150;DHT22;16962;48.646;9.026;2023-03-01T20:09:52;1.60;99.90
30150;DHT22;16962;48.646;9.026;2023-03-01T20:12:53;1.60;99.90
30150;DHT22;16962;48.646;9.026;2023-03-01T20:15:42;1.60;99.90
30150;DHT22;16962;48.646;9.026;2023-03-01T20:18:31;1.60;99.90
30150;DHT22;16962;48.646;9.026;2023-03-01T20:21:22;1.70;99.90
30150;DHT22;16962;48.646;9.026;2023-03-01T20:24:16;1.70;99.90
30150;DHT22;16962;48.646;9.026;2023-03-01T20:27:11;1.70;99.90
30150;DHT22;16962;48.646;9.026;2023-03-01T20:29:59;1.70;99.90
30150;DHT22;16962;48.646;9.026;2023-03-01T20:32:48;1.80;99.90
30150;DHT22;16962;48.646;9.026;2023-03-01T20:35:41;1.70;99.90
30150;DHT22;16962;48.646;9.026;2023-03-01T20:38:29;1.70;99.90
30150;DHT22;16962;48.646;9.026;2023-03-01T20:41:17;1.80;99.90
30150;DHT22;16962;48.646;9.026;2023-03-01T20:44:08;1.80;99.90
30150;DHT22;16962;48.646;9.026;2023-03-01T20:46:57;1.60;99.90
30150;DHT22;16962;48.646;9.026;2023-03-01T20:49:45;1.70;99.90
30150;DHT22;16962;48.646;9.026;2023-03-01T20:52:33;1.60;99.90
30150;DHT22;16962;48.646;9.026;2023-03-01T20:55:33;1.60;99.90
30150;DHT22;16962;48.646;9.026;2023-03-01T20:58:24;1.50;99.90
30150;DHT22;16962;48.646;9.026;2023-03-01T21:01:19;1.50;99.90